F/V Roger Christian3 — FUFL — position and weather

sailwx.info

Track history (hours):
 
Tides and Currents Weather Stations Pressure Air Temp Water Temp Dewpoint Dewpoint Depression Visibility Wind Speed Wind Dir Waves Ship Positions

F/V Roger Christian3

Last reported at 2014-Oct-22 18:26 UTC. Time now 2014-Oct-23 06:43 UTC.
Position N 43°24' E 003°42'.

Length 24 m.

Type: Fishing. MMSI: 228173800.

Date/timePositionNaut miles runAvg speedWind from/ knotsBaromVisibWave heightAir tempDewpointWater temp
2014-Oct-22 18:26N 43°24' E 003°42'0 0.0
2014-Oct-22 15:09N 43°24' E 003°42'7 4.2
2014-Oct-22 13:27N 43°18' E 003°47'2 2.3
2014-Oct-22 12:33N 43°18' E 003°50'6 4.3
2014-Oct-22 11:10N 43°19' E 003°58'3 4.3
2014-Oct-22 10:28N 43°17' E 004°02'2 2.1
2014-Oct-22 09:26N 43°16' E 004°04'5 4.4
2014-Oct-22 08:24N 43°16' E 004°10'4 4.2
2014-Oct-22 07:33N 43°14' E 004°15'3 3.1
2014-Oct-22 06:25N 43°11' E 004°17'5 3.8
2014-Oct-22 05:07N 43°13' E 004°11'24 1.6
2014-Oct-21 14:30N 43°24' E 003°42'9 6.5
2014-Oct-21 13:11N 43°15' E 003°45'4 4.0
2014-Oct-21 12:10N 43°16' E 003°50'8 4.2
2014-Oct-21 10:21N 43°18' E 004°00'2 2.5
2014-Oct-21 09:23N 43°17' E 004°03'12 4.2
2014-Oct-21 06:27N 43°11' E 004°18'29 2.0
2014-Oct-20 15:27N 43°24' E 003°42'2 1.8
2014-Oct-20 14:17N 43°22' E 003°43'7 9.0
2014-Oct-20 13:28N 43°15' E 003°47'4 4.3
2014-Oct-20 12:27N 43°17' E 003°52'4 4.1
2014-Oct-20 11:33N 43°18' E 003°57'8 3.6
2014-Oct-20 09:28N 43°15' E 004°07'4 4.2
2014-Oct-20 08:33N 43°13' E 004°11'5 4.5
2014-Oct-20 07:20N 43°11' E 004°18'2 3.1
2014-Oct-20 06:32N 43°10' E 004°21'32 2.6
2014-Oct-19 18:18N 43°24' E 003°42'0 0.0
2014-Oct-19 16:10N 43°24' E 003°42'0 0.0
2014-Oct-19 14:31N 43°24' E 003°42'0 0.0
2014-Oct-19 13:09N 43°24' E 003°42'0 0.0
2014-Oct-19 12:16N 43°24' E 003°42'0 0.0
2014-Oct-19 10:24N 43°24' E 003°42'0 0.0
2014-Oct-18 20:29N 43°24' E 003°42'0 0.0
2014-Oct-18 19:07N 43°24' E 003°42'0 0.0
2014-Oct-18 18:20N 43°24' E 003°42'0 0.0
2014-Oct-18 17:06N 43°24' E 003°42'0 0.0
2014-Oct-18 16:22N 43°24' E 003°42'0 0.0
2014-Oct-18 15:22N 43°24' E 003°42'0 0.0
2014-Oct-17 15:33N 43°24' E 003°42'0 0.3
2014-Oct-17 14:19N 43°24' E 003°42'4 5.2
2014-Oct-17 13:31N 43°20' E 003°44'6 4.8
2014-Oct-17 12:11N 43°16' E 003°50'4 4.5
2014-Oct-17 11:16N 43°16' E 003°56'6 3.2
2014-Oct-17 09:32N 43°17' E 004°03'6 4.3
2014-Oct-17 08:12N 43°15' E 004°11'3 4.3
2014-Oct-17 07:32N 43°14' E 004°15'3 2.7
2014-Oct-17 06:15N 43°12' E 004°18'29 2.0
2014-Oct-16 15:25N 43°24' E 003°42'0 0.1
2014-Oct-16 14:26N 43°24' E 003°42'5 4.7
2014-Oct-16 13:28N 43°19' E 003°44'5 5.3
2014-Oct-16 12:33N 43°16' E 003°49'5 4.4
2014-Oct-16 11:29N 43°17' E 003°55'4 4.3
2014-Oct-16 10:32N 43°18' E 004°00'2 2.4
2014-Oct-16 09:33N 43°17' E 004°03'5 4.2
2014-Oct-16 08:28N 43°14' E 004°09'5 4.1
2014-Oct-16 07:16N 43°13' E 004°15'3 3.5
2014-Oct-16 06:24N 43°12' E 004°19'4 5.0
2014-Oct-16 05:31N 43°14' E 004°14'25 1.7
2014-Oct-15 14:23N 43°24' E 003°42'4 2.2
2014-Oct-15 12:33N 43°21' E 003°46'6 5.2
2014-Oct-15 11:24N 43°18' E 003°53'4 4.4
2014-Oct-15 10:31N 43°17' E 003°58'4 4.2
2014-Oct-15 09:27N 43°15' E 004°03'4 3.7
2014-Oct-15 08:24N 43°15' E 004°09'4 4.3
2014-Oct-15 07:33N 43°14' E 004°13'5 4.5
2014-Oct-15 06:32N 43°11' E 004°19'3 2.9
2014-Oct-15 05:25N 43°13' E 004°15'4 4.4
2014-Oct-15 04:33N 43°14' E 004°10'23 2.7
2014-Oct-14 20:10N 43°24' E 003°42'0 0.0
2014-Oct-14 19:28N 43°24' E 003°42'0 0.0
2014-Oct-14 18:27N 43°24' E 003°42'0 0.0
2014-Oct-14 17:27N 43°24' E 003°42'0 0.0
2014-Oct-14 16:23N 43°24' E 003°42'0 0.4
2014-Oct-14 15:33N 43°24' E 003°42'0 0.3
2014-Oct-14 14:29N 43°24' E 003°42'4 4.2
2014-Oct-14 13:32N 43°20' E 003°43'4 4.5
2014-Oct-14 12:33N 43°16' E 003°45'5 4.3
2014-Oct-14 11:28N 43°17' E 003°52'4 4.2
2014-Oct-14 10:29N 43°18' E 003°57'2 2.2
2014-Oct-14 09:34N 43°18' E 003°60'6 4.8
2014-Oct-14 08:13N 43°16' E 004°08'3 4.1
2014-Oct-14 07:27N 43°15' E 004°12'24 1.7
2014-Oct-13 17:32N 43°24' E 003°42'0 0.1
2014-Oct-13 16:04N 43°24' E 003°42'0 0.0
2014-Oct-13 15:32N 43°24' E 003°42'5 3.6
2014-Oct-13 14:11N 43°22' E 003°48'5 6.6
2014-Oct-13 13:27N 43°19' E 003°53'5 4.3
2014-Oct-13 12:21N 43°18' E 003°59'8 4.4
2014-Oct-13 10:33N 43°16' E 004°10'5 4.4
2014-Oct-13 09:22N 43°16' E 004°17'  
Track history (hours):
 
Tides and Currents Weather Stations Pressure Air Temp Water Temp Dewpoint Dewpoint Depression Visibility Wind Speed Wind Dir Waves Ship Positions

F/V Roger Christian3

Last reported at 2014-Oct-22 18:26 UTC. Time now 2014-Oct-23 06:43 UTC.
Position N 43°24' E 003°42'.

Length 24 m.

Type: Fishing. MMSI: 228173800.

Date/timePositionNaut miles runAvg speedWind from/ knotsBaromVisibWave heightAir tempDewpointWater temp
2014-Oct-22 18:26N 43°24' E 003°42'0 0.0
2014-Oct-22 15:09N 43°24' E 003°42'7 4.2
2014-Oct-22 13:27N 43°18' E 003°47'2 2.3
2014-Oct-22 12:33N 43°18' E 003°50'6 4.3
2014-Oct-22 11:10N 43°19' E 003°58'3 4.3
2014-Oct-22 10:28N 43°17' E 004°02'2 2.1
2014-Oct-22 09:26N 43°16' E 004°04'5 4.4
2014-Oct-22 08:24N 43°16' E 004°10'4 4.2
2014-Oct-22 07:33N 43°14' E 004°15'3 3.1
2014-Oct-22 06:25N 43°11' E 004°17'5 3.8
2014-Oct-22 05:07N 43°13' E 004°11'24 1.6
2014-Oct-21 14:30N 43°24' E 003°42'9 6.5
2014-Oct-21 13:11N 43°15' E 003°45'4 4.0
2014-Oct-21 12:10N 43°16' E 003°50'8 4.2
2014-Oct-21 10:21N 43°18' E 004°00'2 2.5
2014-Oct-21 09:23N 43°17' E 004°03'12 4.2
2014-Oct-21 06:27N 43°11' E 004°18'29 2.0
2014-Oct-20 15:27N 43°24' E 003°42'2 1.8
2014-Oct-20 14:17N 43°22' E 003°43'7 9.0
2014-Oct-20 13:28N 43°15' E 003°47'4 4.3
2014-Oct-20 12:27N 43°17' E 003°52'4 4.1
2014-Oct-20 11:33N 43°18' E 003°57'8 3.6
2014-Oct-20 09:28N 43°15' E 004°07'4 4.2
2014-Oct-20 08:33N 43°13' E 004°11'5 4.5
2014-Oct-20 07:20N 43°11' E 004°18'2 3.1
2014-Oct-20 06:32N 43°10' E 004°21'32 2.6
2014-Oct-19 18:18N 43°24' E 003°42'0 0.0
2014-Oct-19 16:10N 43°24' E 003°42'0 0.0
2014-Oct-19 14:31N 43°24' E 003°42'0 0.0
2014-Oct-19 13:09N 43°24' E 003°42'0 0.0
2014-Oct-19 12:16N 43°24' E 003°42'0 0.0
2014-Oct-19 10:24N 43°24' E 003°42'0 0.0
2014-Oct-18 20:29N 43°24' E 003°42'0 0.0
2014-Oct-18 19:07N 43°24' E 003°42'0 0.0
2014-Oct-18 18:20N 43°24' E 003°42'0 0.0
2014-Oct-18 17:06N 43°24' E 003°42'0 0.0
2014-Oct-18 16:22N 43°24' E 003°42'0 0.0
2014-Oct-18 15:22N 43°24' E 003°42'0 0.0
2014-Oct-17 15:33N 43°24' E 003°42'0 0.3
2014-Oct-17 14:19N 43°24' E 003°42'4 5.2
2014-Oct-17 13:31N 43°20' E 003°44'6 4.8
2014-Oct-17 12:11N 43°16' E 003°50'4 4.5
2014-Oct-17 11:16N 43°16' E 003°56'6 3.2
2014-Oct-17 09:32N 43°17' E 004°03'6 4.3
2014-Oct-17 08:12N 43°15' E 004°11'3 4.3
2014-Oct-17 07:32N 43°14' E 004°15'3 2.7
2014-Oct-17 06:15N 43°12' E 004°18'29 2.0
2014-Oct-16 15:25N 43°24' E 003°42'0 0.1
2014-Oct-16 14:26N 43°24' E 003°42'5 4.7
2014-Oct-16 13:28N 43°19' E 003°44'5 5.3
2014-Oct-16 12:33N 43°16' E 003°49'5 4.4
2014-Oct-16 11:29N 43°17' E 003°55'4 4.3
2014-Oct-16 10:32N 43°18' E 004°00'2 2.4
2014-Oct-16 09:33N 43°17' E 004°03'5 4.2
2014-Oct-16 08:28N 43°14' E 004°09'5 4.1
2014-Oct-16 07:16N 43°13' E 004°15'3 3.5
2014-Oct-16 06:24N 43°12' E 004°19'4 5.0
2014-Oct-16 05:31N 43°14' E 004°14'25 1.7
2014-Oct-15 14:23N 43°24' E 003°42'4 2.2
2014-Oct-15 12:33N 43°21' E 003°46'6 5.2
2014-Oct-15 11:24N 43°18' E 003°53'4 4.4
2014-Oct-15 10:31N 43°17' E 003°58'4 4.2
2014-Oct-15 09:27N 43°15' E 004°03'4 3.7
2014-Oct-15 08:24N 43°15' E 004°09'4 4.3
2014-Oct-15 07:33N 43°14' E 004°13'5 4.5
2014-Oct-15 06:32N 43°11' E 004°19'3 2.9
2014-Oct-15 05:25N 43°13' E 004°15'4 4.4
2014-Oct-15 04:33N 43°14' E 004°10'23 2.7
2014-Oct-14 20:10N 43°24' E 003°42'0 0.0
2014-Oct-14 19:28N 43°24' E 003°42'0 0.0
2014-Oct-14 18:27N 43°24' E 003°42'0 0.0
2014-Oct-14 17:27N 43°24' E 003°42'0 0.0
2014-Oct-14 16:23N 43°24' E 003°42'0 0.4
2014-Oct-14 15:33N 43°24' E 003°42'0 0.3
2014-Oct-14 14:29N 43°24' E 003°42'4 4.2
2014-Oct-14 13:32N 43°20' E 003°43'4 4.5
2014-Oct-14 12:33N 43°16' E 003°45'5 4.3
2014-Oct-14 11:28N 43°17' E 003°52'4 4.2
2014-Oct-14 10:29N 43°18' E 003°57'2 2.2
2014-Oct-14 09:34N 43°18' E 003°60'6 4.8
2014-Oct-14 08:13N 43°16' E 004°08'3 4.1
2014-Oct-14 07:27N 43°15' E 004°12'24 1.7
2014-Oct-13 17:32N 43°24' E 003°42'0 0.1
2014-Oct-13 16:04N 43°24' E 003°42'0 0.0
2014-Oct-13 15:32N 43°24' E 003°42'5 3.6
2014-Oct-13 14:11N 43°22' E 003°48'5 6.6
2014-Oct-13 13:27N 43°19' E 003°53'5 4.3
2014-Oct-13 12:21N 43°18' E 003°59'8 4.4
2014-Oct-13 10:33N 43°16' E 004°10'5 4.4
2014-Oct-13 09:22N 43°16' E 004°17'  

Dump ship's entire track history